createdAt,value
2022-12-10T00:02:09.414Z,42.23
2022-12-10T00:04:37.593Z,43.20
2022-12-10T00:07:08.331Z,42.90
2022-12-10T00:09:37.342Z,43.40
2022-12-10T00:12:06.114Z,43.50
2022-12-10T00:14:35.499Z,44.40
2022-12-10T00:17:07.352Z,45.20
2022-12-10T00:19:39.968Z,43.63
2022-12-10T00:22:11.323Z,42.90
2022-12-10T00:24:39.437Z,44.47
2022-12-10T00:27:08.333Z,43.03
2022-12-10T00:29:38.193Z,44.13
2022-12-10T00:32:07.110Z,43.73
2022-12-10T00:34:38.693Z,42.67
2022-12-10T00:37:06.761Z,42.73
2022-12-10T00:39:40.438Z,40.97
2022-12-10T00:42:08.874Z,43.33
2022-12-10T00:44:38.319Z,45.17
2022-12-10T00:47:07.450Z,47.77
2022-12-10T00:49:39.261Z,47.73
2022-12-10T00:52:07.379Z,48.47
2022-12-10T00:54:35.546Z,47.57
2022-12-10T00:57:04.357Z,47.10
2022-12-10T00:59:34.240Z,44.30
2022-12-10T01:02:07.079Z,44.03
2022-12-10T01:04:35.988Z,43.17
2022-12-10T01:07:08.194Z,43.13
2022-12-10T01:09:41.950Z,42.93
2022-12-10T01:12:11.347Z,42.10
2022-12-10T01:14:39.425Z,42.50
2022-12-10T01:17:10.582Z,43.63
2022-12-10T01:19:39.013Z,43.00
2022-12-10T01:22:11.477Z,42.07
2022-12-10T01:24:39.560Z,43.83
2022-12-10T01:27:07.729Z,42.50
2022-12-10T01:29:37.520Z,42.03
2022-12-10T01:32:05.882Z,42.30
2022-12-10T01:34:35.284Z,41.57
2022-12-10T01:37:04.391Z,43.07
2022-12-10T01:39:34.199Z,43.53
2022-12-10T01:42:05.317Z,41.83
2022-12-10T01:44:59.713Z,42.93
2022-12-10T01:47:30.346Z,42.40
2022-12-10T01:50:05.467Z,41.80
2022-12-10T01:52:43.515Z,41.93
2022-12-10T01:55:43.642Z,41.67
2022-12-10T01:58:13.485Z,41.63
2022-12-10T02:00:49.699Z,41.70
2022-12-10T02:03:26.376Z,42.57
2022-12-10T02:06:08.537Z,42.33
2022-12-10T02:08:43.637Z,41.30
2022-12-10T02:11:19.428Z,40.73
2022-12-10T02:14:02.174Z,39.43
2022-12-10T02:16:37.286Z,40.37
2022-12-10T02:19:17.350Z,40.03
2022-12-10T02:21:50.382Z,40.30
2022-12-10T02:24:24.657Z,38.07
2022-12-10T02:27:01.410Z,37.03
2022-12-10T02:29:33.377Z,39.40
2022-12-10T02:32:05.401Z,36.67
2022-12-10T02:34:41.219Z,37.50
2022-12-10T02:37:13.370Z,37.63
2022-12-10T02:39:47.218Z,37.27
2022-12-10T02:42:19.141Z,37.73
2022-12-10T02:45:14.429Z,40.50
2022-12-10T02:47:46.284Z,38.40
2022-12-10T02:50:21.403Z,39.70
2022-12-10T02:52:54.514Z,37.40
2022-12-10T02:55:26.530Z,36.90
2022-12-10T02:58:17.402Z,36.23
2022-12-10T03:01:00.320Z,36.10
2022-12-10T03:03:40.662Z,36.73
2022-12-10T03:06:14.826Z,36.60
2022-12-10T03:08:49.393Z,35.17
2022-12-10T03:11:19.410Z,36.03
2022-12-10T03:13:56.052Z,35.37
2022-12-10T03:16:28.282Z,35.83
2022-12-10T03:19:00.264Z,35.67
2022-12-10T03:21:31.401Z,36.63
2022-12-10T03:24:01.275Z,34.63
2022-12-10T03:26:30.376Z,35.13
2022-12-10T03:29:04.437Z,35.47
2022-12-10T03:31:36.305Z,35.40
2022-12-10T03:34:06.396Z,34.93
2022-12-10T03:36:36.380Z,37.30
2022-12-10T03:39:08.416Z,37.70
2022-12-10T03:41:38.738Z,39.47
2022-12-10T03:44:08.242Z,40.87
2022-12-10T03:46:38.392Z,40.17
2022-12-10T03:49:08.390Z,39.37
2022-12-10T03:51:36.560Z,38.23
2022-12-10T03:54:08.491Z,39.60
2022-12-10T03:56:36.638Z,39.77
2022-12-10T03:59:05.378Z,39.60
2022-12-10T04:01:33.587Z,37.90
2022-12-10T04:04:03.751Z,40.33
2022-12-10T04:06:35.333Z,39.97
2022-12-10T04:09:04.400Z,38.73
2022-12-10T04:11:32.577Z,37.97
2022-12-10T04:14:19.159Z,39.27
2022-12-10T04:16:51.526Z,37.30
2022-12-10T04:19:22.120Z,39.00
2022-12-10T04:22:11.005Z,38.93
2022-12-10T04:24:57.785Z,40.60
2022-12-10T04:27:30.126Z,37.73
2022-12-10T04:30:02.524Z,38.50
2022-12-10T04:32:31.650Z,38.87
2022-12-10T04:35:01.392Z,38.50
2022-12-10T04:37:30.107Z,37.80
2022-12-10T04:39:59.260Z,36.13
2022-12-10T04:42:31.199Z,36.13
2022-12-10T04:44:59.304Z,34.93
2022-12-10T04:47:29.044Z,34.87
2022-12-10T04:49:57.442Z,32.93
2022-12-10T04:52:27.432Z,33.07
2022-12-10T04:54:55.563Z,34.20
2022-12-10T04:57:25.096Z,34.73
2022-12-10T04:59:53.119Z,34.63
2022-12-10T05:02:22.421Z,38.63
2022-12-10T05:04:51.025Z,29.50
2022-12-10T05:07:21.446Z,28.10
2022-12-10T05:09:51.022Z,29.70
2022-12-10T05:12:20.228Z,26.00
2022-12-10T05:14:48.283Z,26.33
2022-12-10T05:17:17.408Z,26.43
2022-12-10T05:19:49.268Z,27.53
2022-12-10T05:22:35.799Z,28.17
2022-12-10T05:25:06.286Z,30.37
2022-12-10T05:27:35.123Z,32.10
2022-12-10T05:30:04.270Z,33.27
2022-12-10T05:32:32.405Z,31.67
2022-12-10T05:35:01.269Z,33.60
2022-12-10T05:37:30.764Z,31.80
2022-12-10T05:39:59.033Z,31.73
2022-12-10T05:42:29.403Z,31.63
2022-12-10T05:44:58.287Z,32.90
2022-12-10T05:47:27.045Z,30.83
2022-12-10T05:49:58.393Z,31.17
2022-12-10T05:52:27.420Z,30.57
2022-12-10T05:54:55.574Z,31.97
2022-12-10T05:57:24.584Z,32.07
2022-12-10T05:59:54.058Z,30.13
2022-12-10T06:02:23.341Z,29.63
2022-12-10T06:04:53.334Z,28.83
2022-12-10T06:07:22.463Z,28.97
2022-12-10T06:09:50.542Z,28.07
2022-12-10T06:12:18.994Z,27.93
2022-12-10T06:14:49.510Z,26.80
2022-12-10T06:17:22.507Z,27.80
2022-12-10T06:19:52.301Z,27.97
2022-12-10T06:22:20.601Z,27.20
2022-12-10T06:24:50.155Z,27.77
2022-12-10T06:27:18.403Z,26.83
2022-12-10T06:29:49.047Z,26.83
2022-12-10T06:32:17.230Z,26.03
2022-12-10T06:34:47.283Z,26.10
2022-12-10T06:37:18.320Z,26.17
2022-12-10T06:39:46.400Z,26.43
2022-12-10T06:42:15.426Z,27.23
2022-12-10T06:44:44.309Z,27.27
2022-12-10T06:47:12.583Z,28.00
2022-12-10T06:49:41.304Z,27.97
2022-12-10T06:52:10.914Z,27.07
2022-12-10T06:54:39.296Z,26.60
2022-12-10T06:57:07.601Z,27.83
2022-12-10T06:59:39.383Z,26.30
2022-12-10T07:02:07.915Z,26.47
2022-12-10T07:04:36.066Z,26.40
2022-12-10T07:07:09.419Z,27.77
2022-12-10T07:09:39.904Z,26.53
2022-12-10T07:12:08.445Z,27.13
2022-12-10T07:14:36.620Z,26.27
2022-12-10T07:17:06.315Z,25.97
2022-12-10T07:19:34.468Z,28.40
2022-12-10T07:22:03.754Z,27.27
2022-12-10T07:24:32.101Z,26.97
2022-12-10T07:27:06.531Z,26.90
2022-12-10T07:29:37.513Z,26.67
2022-12-10T07:32:05.836Z,27.03
2022-12-10T07:34:33.950Z,26.53
2022-12-10T07:37:04.491Z,27.60
2022-12-10T07:39:32.657Z,26.90
2022-12-10T07:42:00.698Z,28.00
2022-12-10T07:44:32.158Z,26.53
2022-12-10T07:47:00.338Z,26.27
2022-12-10T07:49:28.611Z,25.77
2022-12-10T07:51:58.226Z,26.90
2022-12-10T07:54:26.455Z,26.23
2022-12-10T07:56:54.608Z,25.07
2022-12-10T07:59:26.415Z,25.37
2022-12-10T08:02:00.838Z,26.00
2022-12-10T08:04:36.008Z,23.17
2022-12-10T08:07:06.804Z,24.33
2022-12-10T08:09:34.946Z,23.70
2022-12-10T08:12:03.036Z,22.83
2022-12-10T08:14:31.434Z,23.30
2022-12-10T08:17:03.522Z,22.20
2022-12-10T08:19:32.122Z,22.77
2022-12-10T08:22:01.813Z,21.57
2022-12-10T08:24:30.546Z,21.97
2022-12-10T08:26:58.808Z,22.30
2022-12-10T08:29:30.154Z,21.30
2022-12-10T08:31:58.544Z,21.17
2022-12-10T08:34:28.397Z,22.27
2022-12-10T08:36:56.542Z,21.33
2022-12-10T08:39:24.648Z,21.30
2022-12-10T08:41:53.498Z,21.37
2022-12-10T08:44:21.736Z,21.87
2022-12-10T08:46:50.560Z,21.30
2022-12-10T08:49:19.306Z,20.90
2022-12-10T08:51:51.696Z,20.73
2022-12-10T08:54:20.130Z,21.77
2022-12-10T08:56:48.370Z,21.70
2022-12-10T08:59:16.598Z,21.03
2022-12-10T09:01:44.657Z,22.20
2022-12-10T09:04:14.582Z,21.57
2022-12-10T09:06:42.678Z,21.80
2022-12-10T09:09:12.186Z,22.70
2022-12-10T09:11:41.512Z,21.37
2022-12-10T09:14:09.676Z,21.60
2022-12-10T09:16:40.182Z,19.73
2022-12-10T09:19:09.531Z,21.47
2022-12-10T09:21:38.036Z,21.80
2022-12-10T09:24:08.201Z,21.43
2022-12-10T09:26:37.774Z,21.93
2022-12-10T09:29:06.662Z,22.17
2022-12-10T09:31:35.391Z,20.67
2022-12-10T09:34:04.558Z,22.57
2022-12-10T09:36:34.076Z,21.97
2022-12-10T09:39:03.495Z,22.57
2022-12-10T09:42:12.395Z,22.87
2022-12-10T09:44:48.783Z,21.47
2022-12-10T09:47:18.547Z,22.60
2022-12-10T09:49:59.540Z,23.53
2022-12-10T09:52:32.496Z,21.87
2022-12-10T09:55:04.619Z,23.47
2022-12-10T09:57:37.368Z,23.67
2022-12-10T10:00:18.715Z,23.20
2022-12-10T10:02:47.602Z,22.47
2022-12-10T10:05:22.365Z,22.67
2022-12-10T10:07:54.974Z,21.63
2022-12-10T10:10:28.343Z,21.90
2022-12-10T10:13:03.108Z,23.43
2022-12-10T10:15:35.532Z,21.07
2022-12-10T10:18:11.404Z,21.73
2022-12-10T10:20:40.399Z,22.13
2022-12-10T10:23:11.326Z,22.73
2022-12-10T10:25:44.489Z,22.17
2022-12-10T10:28:19.446Z,21.10
2022-12-10T10:30:51.915Z,21.50
2022-12-10T10:33:21.614Z,21.60
2022-12-10T10:35:52.364Z,21.73
2022-12-10T10:38:24.564Z,21.97
2022-12-10T10:40:55.374Z,21.37
2022-12-10T10:43:28.620Z,20.93
2022-12-10T10:46:01.422Z,21.40
2022-12-10T10:48:31.536Z,21.90
2022-12-10T10:51:09.682Z,22.90
2022-12-10T10:53:44.886Z,21.93
2022-12-10T10:56:18.972Z,21.83
2022-12-10T10:58:55.545Z,23.30
2022-12-10T11:01:26.514Z,21.67
2022-12-10T11:03:59.538Z,22.63
2022-12-10T11:06:29.380Z,21.57
2022-12-10T11:09:04.111Z,22.70
2022-12-10T11:11:36.405Z,22.13
2022-12-10T11:14:26.577Z,22.47
2022-12-10T11:17:06.766Z,22.10
2022-12-10T11:19:35.178Z,22.27
2022-12-10T11:22:19.467Z,21.47
2022-12-10T11:24:49.034Z,21.83
2022-12-10T11:27:25.270Z,21.80
2022-12-10T11:30:01.416Z,22.57
2022-12-10T11:32:41.612Z,23.40
2022-12-10T11:35:18.395Z,21.80
2022-12-10T11:38:20.320Z,22.00
2022-12-10T11:40:56.634Z,20.87
2022-12-10T11:43:51.733Z,22.00
2022-12-10T11:46:35.680Z,21.27
2022-12-10T11:49:24.309Z,22.50
2022-12-10T11:52:03.472Z,25.33
2022-12-10T11:54:50.619Z,22.87
2022-12-10T11:57:29.140Z,23.93
2022-12-10T12:00:05.326Z,23.70
2022-12-10T12:03:07.118Z,22.40
2022-12-10T12:06:03.194Z,22.20
2022-12-10T12:08:49.597Z,23.53
2022-12-10T12:11:43.834Z,27.60
2022-12-10T12:14:20.401Z,27.83
2022-12-10T12:16:53.357Z,25.10
2022-12-10T12:19:30.668Z,23.93
2022-12-10T12:22:04.239Z,19.23
2022-12-10T12:24:37.385Z,19.53
2022-12-10T12:27:15.168Z,20.73
2022-12-10T12:29:47.597Z,21.40
2022-12-10T12:32:22.208Z,19.53
2022-12-10T12:35:00.601Z,20.33
2022-12-10T12:37:39.016Z,20.07
2022-12-10T12:40:18.669Z,20.23
2022-12-10T12:42:57.493Z,18.47
2022-12-10T12:45:33.558Z,19.03
2022-12-10T12:48:11.756Z,19.10
2022-12-10T12:50:45.321Z,23.67
2022-12-10T12:53:16.833Z,20.70
2022-12-10T12:55:52.628Z,24.23
2022-12-10T12:58:28.867Z,21.57
2022-12-10T13:01:03.593Z,20.40
2022-12-10T13:03:38.338Z,21.03
2022-12-10T13:06:20.794Z,19.77
2022-12-10T13:08:54.391Z,19.53
2022-12-10T13:11:33.960Z,19.17
2022-12-10T13:14:32.682Z,21.13
2022-12-10T13:17:28.617Z,22.47
2022-12-10T13:20:34.862Z,26.03
2022-12-10T13:23:07.040Z,27.10
2022-12-10T13:26:00.273Z,25.37
2022-12-10T13:28:33.190Z,21.60
2022-12-10T13:31:39.999Z,21.67
2022-12-10T13:34:24.156Z,20.43
2022-12-10T13:37:32.437Z,20.07
2022-12-10T13:40:26.329Z,20.33
2022-12-10T13:43:23.171Z,20.93
2022-12-10T13:46:28.715Z,20.53
2022-12-10T13:48:58.642Z,20.80
2022-12-10T13:51:39.447Z,19.73
2022-12-10T13:54:29.613Z,18.90
2022-12-10T13:57:08.451Z,19.10
2022-12-10T13:59:45.598Z,39.80
2022-12-10T14:02:40.627Z,20.93
2022-12-10T14:05:41.409Z,20.03
2022-12-10T14:08:16.180Z,21.23
2022-12-10T14:10:48.456Z,20.73
2022-12-10T14:13:21.942Z,20.47
2022-12-10T14:15:57.620Z,21.87
2022-12-10T14:18:27.621Z,20.60
2022-12-10T14:20:57.621Z,20.17
2022-12-10T14:23:41.121Z,22.27
2022-12-10T14:26:20.039Z,21.93
2022-12-10T14:28:51.750Z,24.07
2022-12-10T14:31:22.859Z,23.40
2022-12-10T14:33:53.583Z,21.90
2022-12-10T14:36:29.864Z,21.87
2022-12-10T14:38:59.689Z,21.17
2022-12-10T14:41:37.477Z,21.60
2022-12-10T14:44:17.736Z,20.90
2022-12-10T14:46:48.475Z,21.07
2022-12-10T14:49:23.586Z,21.33
2022-12-10T14:51:53.490Z,22.30
2022-12-10T14:54:32.677Z,23.53
2022-12-10T14:57:09.187Z,20.47
2022-12-10T14:59:45.488Z,21.53
2022-12-10T15:02:20.644Z,21.17
2022-12-10T15:04:51.501Z,21.83
2022-12-10T15:07:27.555Z,20.63
2022-12-10T15:09:57.469Z,21.47
2022-12-10T15:12:35.284Z,21.50
2022-12-10T15:15:10.837Z,24.07
2022-12-10T15:17:43.357Z,20.70
2022-12-10T15:20:23.959Z,21.57
2022-12-10T15:22:54.465Z,23.00
2022-12-10T15:25:25.801Z,21.10
2022-12-10T15:28:03.482Z,22.37
2022-12-10T15:30:38.549Z,21.83
2022-12-10T15:33:23.946Z,21.77
2022-12-10T15:35:55.692Z,21.03
2022-12-10T15:38:25.112Z,22.87
2022-12-10T15:40:53.328Z,21.43
2022-12-10T15:43:30.769Z,21.90
2022-12-10T15:46:00.718Z,20.53
2022-12-10T15:48:31.599Z,20.97
2022-12-10T15:51:00.021Z,20.20
2022-12-10T15:53:35.307Z,19.90
2022-12-10T15:56:08.805Z,19.73
2022-12-10T15:58:38.429Z,19.97
2022-12-10T16:01:06.709Z,20.43
2022-12-10T16:03:35.313Z,21.80
2022-12-10T16:06:06.303Z,23.60
2022-12-10T16:08:36.670Z,21.83
2022-12-10T16:11:15.251Z,21.30
2022-12-10T16:13:50.747Z,21.30
2022-12-10T16:16:19.704Z,21.00
2022-12-10T16:18:47.982Z,19.90
2022-12-10T16:21:17.477Z,20.07
2022-12-10T16:23:47.955Z,19.57
2022-12-10T16:26:19.229Z,19.00
2022-12-10T16:28:49.535Z,20.23
2022-12-10T16:31:20.430Z,19.63
2022-12-10T16:33:52.667Z,20.27
2022-12-10T16:36:21.661Z,20.27
2022-12-10T16:38:50.698Z,19.00
2022-12-10T16:41:21.044Z,20.90
2022-12-10T16:43:50.703Z,19.87
2022-12-10T16:46:18.855Z,19.83
2022-12-10T16:48:47.281Z,20.60
2022-12-10T16:51:20.191Z,19.67
2022-12-10T16:53:49.678Z,20.80
2022-12-10T16:56:18.537Z,27.07
2022-12-10T16:58:48.031Z,21.63
2022-12-10T17:01:23.043Z,21.80
2022-12-10T17:03:52.661Z,21.30
2022-12-10T17:06:21.632Z,20.30
2022-12-10T17:08:50.706Z,21.23
2022-12-10T17:11:40.498Z,21.67
2022-12-10T17:14:19.378Z,21.77
2022-12-10T17:16:49.737Z,22.27
2022-12-10T17:19:18.298Z,22.77
2022-12-10T17:21:46.851Z,22.60
2022-12-10T17:24:15.121Z,23.60
2022-12-10T17:26:47.647Z,23.23
2022-12-10T17:29:18.663Z,21.80
2022-12-10T17:31:48.488Z,23.03
2022-12-10T17:34:17.967Z,24.27
2022-12-10T17:36:46.352Z,25.67
2022-12-10T17:39:22.085Z,23.83
2022-12-10T17:41:50.881Z,23.83
2022-12-10T17:44:19.257Z,23.63
2022-12-10T17:46:51.571Z,23.20
2022-12-10T17:49:20.215Z,24.07
2022-12-10T17:51:48.477Z,23.60
2022-12-10T17:54:16.667Z,23.10
2022-12-10T17:56:50.612Z,28.50
2022-12-10T17:59:19.565Z,23.93
2022-12-10T18:01:48.961Z,22.17
2022-12-10T18:04:18.856Z,21.40
2022-12-10T18:06:47.310Z,22.10
2022-12-10T18:09:18.481Z,21.23
2022-12-10T18:11:48.296Z,21.37
2022-12-10T18:14:16.538Z,20.70
2022-12-10T18:16:44.779Z,21.33
2022-12-10T18:19:16.471Z,20.90
2022-12-10T18:21:53.513Z,20.13
2022-12-10T18:24:23.512Z,20.40
2022-12-10T18:26:51.964Z,21.60
2022-12-10T18:29:24.315Z,20.83
2022-12-10T18:31:52.942Z,21.50
2022-12-10T18:34:21.305Z,22.70
2022-12-10T18:36:51.139Z,21.70
2022-12-10T18:39:23.125Z,23.57
2022-12-10T18:41:52.534Z,21.77
2022-12-10T18:44:23.286Z,21.27
2022-12-10T18:46:52.319Z,21.03
2022-12-10T18:49:21.234Z,22.40
2022-12-10T18:51:51.290Z,22.63
2022-12-10T18:54:20.528Z,22.90
2022-12-10T18:57:32.259Z,21.33
2022-12-10T18:59:36.753Z,21.97
2022-12-10T19:02:04.834Z,22.07
2022-12-10T19:04:33.104Z,22.13
2022-12-10T19:07:04.460Z,23.13
2022-12-10T19:09:36.173Z,22.67
2022-12-10T19:12:04.766Z,22.30
2022-12-10T19:14:32.853Z,24.93
2022-12-10T19:17:05.578Z,28.23
2022-12-10T19:19:33.681Z,23.23
2022-12-10T19:22:03.238Z,22.80
2022-12-10T19:24:31.366Z,22.77
2022-12-10T19:26:59.452Z,23.10
2022-12-10T19:29:29.080Z,23.47
2022-12-10T19:31:59.591Z,23.87
2022-12-10T19:34:28.672Z,24.90
2022-12-10T19:36:57.020Z,24.37
2022-12-10T19:39:28.378Z,24.03
2022-12-10T19:41:59.931Z,31.10
2022-12-10T19:44:28.745Z,28.50
2022-12-10T19:46:56.884Z,24.10
2022-12-10T19:49:25.113Z,24.80
2022-12-10T19:51:53.592Z,24.73
2022-12-10T19:54:22.279Z,26.27
2022-12-10T19:56:51.920Z,27.10
2022-12-10T19:59:21.242Z,24.57
2022-12-10T20:01:49.477Z,25.10
2022-12-10T20:04:18.625Z,24.13
2022-12-10T20:06:48.559Z,23.63
2022-12-10T20:09:20.508Z,24.67
2022-12-10T20:11:48.908Z,24.37
2022-12-10T20:14:19.111Z,24.00
2022-12-10T20:16:48.003Z,23.93
2022-12-10T20:19:18.304Z,26.83
2022-12-10T20:21:46.477Z,29.30
2022-12-10T20:24:15.404Z,26.10
2022-12-10T20:26:45.405Z,24.83
2022-12-10T20:29:18.613Z,25.50
2022-12-10T20:31:54.061Z,25.30
2022-12-10T20:34:23.547Z,24.90
2022-12-10T20:36:53.193Z,26.30
2022-12-10T20:39:24.107Z,26.60
2022-12-10T20:41:53.079Z,25.30
2022-12-10T20:44:22.066Z,27.10
2022-12-10T20:46:52.358Z,27.67
2022-12-10T20:49:23.382Z,26.40
2022-12-10T20:51:52.342Z,27.13
2022-12-10T20:54:20.712Z,25.93
2022-12-10T20:56:52.221Z,27.07
2022-12-10T20:59:20.723Z,25.73
2022-12-10T21:01:48.850Z,27.10
2022-12-10T21:04:18.386Z,26.83
2022-12-10T21:06:46.750Z,26.13
2022-12-10T21:09:14.980Z,27.20
2022-12-10T21:11:43.107Z,25.07
2022-12-10T21:14:44.144Z,30.43
2022-12-10T21:17:02.263Z,29.43
2022-12-10T21:19:31.876Z,26.73
2022-12-10T21:22:03.133Z,27.27
2022-12-10T21:24:31.287Z,26.47
2022-12-10T21:26:59.483Z,25.77
2022-12-10T21:29:31.632Z,26.53
2022-12-10T21:31:59.713Z,26.47
2022-12-10T21:34:27.953Z,26.03
2022-12-10T21:36:57.624Z,28.33
2022-12-10T21:39:25.782Z,28.43
2022-12-10T21:42:11.689Z,28.30
2022-12-10T21:44:39.915Z,28.30
2022-12-10T21:47:08.268Z,26.70
2022-12-10T21:49:40.165Z,26.27
2022-12-10T21:52:10.713Z,26.60
2022-12-10T21:54:41.241Z,28.20
2022-12-10T21:57:09.409Z,26.97
2022-12-10T21:59:37.512Z,27.73
2022-12-10T22:02:09.290Z,27.13
2022-12-10T22:04:37.550Z,26.83
2022-12-10T22:07:05.728Z,30.40
2022-12-10T22:09:35.818Z,30.57
2022-12-10T22:12:04.216Z,26.90
2022-12-10T22:14:32.482Z,25.17
2022-12-10T22:17:03.604Z,26.40
2022-12-10T22:19:31.730Z,27.07
2022-12-10T22:21:59.897Z,26.27
2022-12-10T22:24:30.522Z,26.53
2022-12-10T22:27:00.763Z,25.93
2022-12-10T22:29:31.140Z,24.73
2022-12-10T22:31:59.372Z,25.63
2022-12-10T22:34:27.529Z,26.17
2022-12-10T22:36:57.028Z,26.70
2022-12-10T22:39:32.443Z,27.23
2022-12-10T22:42:01.907Z,27.07
2022-12-10T22:44:30.133Z,28.37
2022-12-10T22:46:58.818Z,25.63
2022-12-10T22:49:26.984Z,26.63
2022-12-10T22:51:55.589Z,26.23
2022-12-10T22:54:26.219Z,25.93
2022-12-10T22:56:54.397Z,26.10
2022-12-10T22:59:24.001Z,26.37
2022-12-10T23:01:52.852Z,26.07
2022-12-10T23:04:21.180Z,24.97
2022-12-10T23:06:49.349Z,24.90
2022-12-10T23:09:18.031Z,25.00
2022-12-10T23:12:06.521Z,23.97
2022-12-10T23:14:36.680Z,24.23
2022-12-10T23:17:05.074Z,24.20
2022-12-10T23:19:33.389Z,24.80
2022-12-10T23:22:01.843Z,25.07
2022-12-10T23:24:30.643Z,24.93
2022-12-10T23:26:58.844Z,24.80
2022-12-10T23:29:29.025Z,24.27
2022-12-10T23:31:59.772Z,24.73
2022-12-10T23:34:28.778Z,23.67
2022-12-10T23:36:58.228Z,31.80
2022-12-10T23:39:26.303Z,27.37
2022-12-10T23:41:57.463Z,25.93
2022-12-10T23:44:25.643Z,24.63
2022-12-10T23:46:54.768Z,23.77
2022-12-10T23:49:24.300Z,23.80
2022-12-10T23:51:52.892Z,23.73
2022-12-10T23:54:24.310Z,22.47
2022-12-10T23:56:52.765Z,23.23
2022-12-10T23:59:23.374Z,23.53
